Airfield :
LOGIN :

Register | Disclaimer

   EN    FR    IT 

 










Legend :    VFR   Marginal VFR   IFR   Intensive IFR   Very Intensive IFR
Visi :
Ceiling :
>= 8 km
>= 3000ft
5 to 8 km
1000 to 3000 ft
1500m to 5 km
500 to 1000 ft
800 to 1500m
200 to 500 ft
< 800m
< 200 ft
Symbols :   Thunderstorms  Fog  Heavy snow  Heavy precipitations  Wind > 20 kt
SIGMETs :     Misc.  Thunderstorms  Icing  Turbulence  Mountain Waves  Volcanic Ashes







- Airport Elevation : 423 ft
- IATA code : PIS
- Download approach charts


LFBI - Poitiers

CURRENT METAR :
  • 192000Z AUTO 18011KT CAVOK 15/13 Q1009 BECMG 4000 -RA

EXPIRED METARs :
  • 191930Z AUTO 18010KT CAVOK 15/13 Q1009 BECMG 4000 -RA
  • 191900Z AUTO 18011KT 9999 FEW027 SCT140 15/13 Q1010 NOSIG
  • 191830Z AUTO 19010KT 9999 SCT025 16/13 Q1010 NOSIG
  • 191800Z AUTO 18009KT 9999 BKN026 16/13 Q1009 NOSIG
  • 191730Z AUTO 17008KT CAVOK 16/13 Q1009

TAF TAF LFBI
Valid from the 19 at 18:00 until the 20 at 18:00 UTC


191700Z 1918/2018 18010KT CAVOK
BECMG 1921/1923 4000 -RA BKN040
TEMPO 1923/2005 21015G25KT 3000 RA BKN012
BECMG 2005/2007 24010KT 9999 SCT020
BECMG 2016/2018 CAVOK
No reported NOTAMs for that airfield.
2 SIGMETs reported for the Bordeaux FIR (LFBB) :
 
Severe turbulence
LFBB SIGMET 9 VALID 191800/192200 LFPW
LFBB BORDEAUX FIR/UIR SEV TURB FCST SW OF LINE N4245 E00015 - N4545 W00145 FL220/310 MOV E 30KT WKN=
Embedded thunderstorms
LFBB SIGMET 10 VALID 191900/192100 LFPW
LFBB BORDEAUX FIR/UIR EMBD TS OBS S OF N4345 AND E OF E00215 TOP FL370 STNR NC=



MET'MAP, your aeronautical weather chart ! - Copyright ORBIFLY December 2007 - Disclaimer

ORBIFLY MET'MAP TEAM :

Programming & Development : Alexandra Zaïnal
Concept & Development : Baudouin d'Aumeries
Co-Development & Prog : Marc-Olivier Méhu
Technical & hardware support : Manuel Goepfert

Contact : metmap@orbifly.com




SOURCES & CREDITS :

   NOAA